Flight Track Log - Related Links

Times and Time Zones

All times are in EDT time to prevent confusion due to time zone crossing. See the N143DE flight status page for this flight to view local times or setup timezone preferences in your user account.

Time Position Orientation Groundspeed Altitude Reporting Facility
EDT Latitude Longitude Course Direction KTS MPH feet Rate Location/Type
Sat 02:39:05 AM 33.6575 -84.5728 277° West 170 196 7,400  Level Atlanta Center
Sat 02:40:05 AM 33.6572 -84.6228 270° West 157 181 9,400 1,900 Climbing Atlanta Center
Sat 02:41:05 AM 33.6592 -84.6728 273° West 157 181 11,200 1,650 Climbing Atlanta Center
Sat 02:42:00 AM 33.8659 -84.7901 268° West  Level Estimated
Sat 02:42:05 AM 33.6589 -84.7250 270° West 157 181 12,700  Level Atlanta Center
Sat 02:43:05 AM 33.6583 -84.7825 269° West 162 186 14,200 1,450 Climbing Atlanta Center
Sat 02:44:05 AM 33.6622 -84.8350 275° West 162 186 15,600 1,350 Climbing Atlanta Center
Sat 02:45:05 AM 33.6619 -84.8950 270° West 167 192 16,900 1,100 Climbing Atlanta Center
Sat 02:46:05 AM 33.6636 -84.9397 273° West 167 192 17,800 1,000 Climbing Atlanta Center
Sat 02:47:05 AM 33.6633 -84.9947 270° West 162 186 18,900 1,050 Climbing Atlanta Center
Sat 02:48:05 AM 33.6647 -85.0522 272° West 162 186 19,900 950 Climbing Atlanta Center
Sat 02:49:05 AM 33.6664 -85.1094 272° West 168 193 20,800 950 Climbing Atlanta Center
Sat 02:50:05 AM 33.6658 -85.1694 269° West 178 205 21,800 1,000 Climbing Atlanta Center
Sat 02:51:05 AM 33.6675 -85.2269 272° West 178 205 22,800 900 Climbing Atlanta Center
Sat 02:52:05 AM 33.6919 -85.2722 303° West 160 184 23,600 750 Climbing Atlanta Center
Sat 02:53:05 AM 33.7144 -85.3200 300° West 155 178 24,300 700 Climbing Atlanta Center
Sat 02:54:05 AM 33.7411 -85.3653 305° West 160 184 25,000 700 Climbing Atlanta Center
Sat 02:55:05 AM 33.7617 -85.4131 297° West 167 192 25,700 550 Climbing Atlanta Center
Sat 02:56:05 AM 33.7861 -85.4586 303° West 167 192 26,100 200 Climbing Atlanta Center
Sat 02:57:05 AM 33.8147 -85.5164 301° West 181 208 26,100 -50 Level Atlanta Center
Sat 02:58:05 AM 33.8453 -85.5719 304° West 199 229 26,000 -50 Descending Atlanta Center
Sat 02:59:05 AM 33.8778 -85.6353 302° West 210 242 26,000  Level Atlanta Center
Sat 03:00:05 AM 33.9103 -85.6983 302° West 216 249 26,000  Level Atlanta Center
Sat 03:01:05 AM 33.9408 -85.7539 304° West 221 254 26,000  Level Atlanta Center
Sat 03:02:05 AM 33.9650 -85.8147 296° West 221 254 26,000  Level Atlanta Center
Sat 03:03:05 AM 33.9997 -85.8806 302° West 216 249 26,000  Level Atlanta Center
Sat 03:04:05 AM 34.0322 -85.9439 302° West 221 254 26,000  Level Atlanta Center
Sat 03:05:05 AM 34.0625 -86.0072 300° West 226 260 26,000  Level Atlanta Center
Sat 03:06:05 AM 34.0928 -86.0681 301° West 226 260 26,000  Level Atlanta Center
Sat 03:07:05 AM 34.1272 -86.1342 302° West 226 260 26,000  Level Atlanta Center
Sat 03:08:05 AM 34.1575 -86.1928 302° West 226 260 26,000  Level Atlanta Center
Sat 03:09:05 AM 34.1897 -86.2586 301° West 226 260 26,000  Level Atlanta Center
Sat 03:10:05 AM 34.2197 -86.3222 300° West 226 260 26,000  Level Atlanta Center
Sat 03:11:05 AM 34.2500 -86.3836 301° West 226 260 26,000  Level Atlanta Center
Sat 03:12:05 AM 34.2819 -86.4472 301° West 226 260 26,000  Level Atlanta Center
Sat 03:13:05 AM 34.3122 -86.5108 300° West 226 260 26,000  Level Atlanta Center
Sat 03:14:05 AM 34.3442 -86.5747 301° West 231 266 26,000  Level Atlanta Center
Sat 03:15:05 AM 34.3764 -86.6361 302° West 231 266 26,000  Level Atlanta Center
Sat 03:17:29 AM 34.4511 -86.7933 300° West 235 270 26,000  Level Memphis Center
Sat 03:18:29 AM 34.4800 -86.8575 299° West 224 258 26,000  Level Memphis Center
Sat 03:19:29 AM 34.5178 -86.9317 302° West 232 267 26,000  Level Memphis Center
Sat 03:20:29 AM 34.5486 -86.9983 299° West 232 267 26,000  Level Memphis Center
Sat 03:21:29 AM 34.5794 -87.0603 301° West 220 253 26,000  Level Memphis Center
Sat 03:22:29 AM 34.6106 -87.1272 299° West 226 260 26,000  Level Memphis Center
Sat 03:23:29 AM 34.6414 -87.1867 302° West 221 254 26,000  Level Memphis Center
Sat 03:24:29 AM 34.6700 -87.2486 299° West 219 252 26,000  Level Memphis Center
Sat 03:25:29 AM 34.7028 -87.3131 302° West 219 252 26,000  Level Memphis Center
Sat 03:26:29 AM 34.7292 -87.3703 299° West 219 252 26,000  Level Memphis Center
Sat 03:27:29 AM 34.7600 -87.4325 301° West 224 258 26,000  Level Memphis Center
Sat 03:28:29 AM 34.7928 -87.4994 301° West 216 249 26,000  Level Memphis Center
Sat 03:29:29 AM 34.8192 -87.5594 298° West 216 249 26,000  Level Memphis Center
Sat 03:30:29 AM 34.8539 -87.6214 304° West 224 258 26,000  Level Memphis Center
Sat 03:31:29 AM 34.8806 -87.6839 297° West 219 252 26,000  Level Memphis Center
Sat 03:32:29 AM 34.9153 -87.7561 300° West 219 252 26,000  Level Memphis Center
Sat 03:33:29 AM 34.9436 -87.8186 299° West 214 246 26,000  Level Memphis Center
Sat 03:34:29 AM 34.9742 -87.8786 302° West 220 253 26,000  Level Memphis Center
Sat 03:35:29 AM 35.0047 -87.9436 300° West 220 253 26,000  Level Memphis Center
Sat 03:36:29 AM 35.0331 -88.0036 300° West 220 253 26,000  Level Memphis Center
Sat 03:37:29 AM 35.0592 -88.0689 296° West 220 253 26,000  Level Memphis Center
Sat 03:38:29 AM 35.0936 -88.1314 304° West 220 253 26,000  Level Memphis Center
Sat 03:39:29 AM 35.1219 -88.1967 298° West 220 253 26,000  Level Memphis Center
Sat 03:40:29 AM 35.1522 -88.2594 301° West 220 253 26,000  Level Memphis Center
Sat 03:41:29 AM 35.1825 -88.3222 301° West 220 253 26,000  Level Memphis Center
Sat 03:42:29 AM 35.2128 -88.3850 301° West 220 253 26,000  Level Memphis Center
Sat 03:43:29 AM 35.2431 -88.4503 300° West 220 253 26,000  Level Memphis Center
Sat 03:44:29 AM 35.2667 -88.5056 298° West 220 253 26,000  Level Memphis Center
Sat 03:45:29 AM 35.2969 -88.5661 302° West 220 253 26,000  Level Memphis Center
Sat 03:46:29 AM 35.3269 -88.6317 299° West 220 253 26,000  Level Memphis Center
Sat 03:47:29 AM 35.3569 -88.6972 299° West 225 259 26,000  Level Memphis Center
Sat 03:48:29 AM 35.3872 -88.7603 301° West 218 251 26,000  Level Memphis Center
Sat 03:49:29 AM 35.4172 -88.8258 299° West 218 251 26,000  Level Memphis Center
Sat 03:50:29 AM 35.4492 -88.8942 300° West 218 251 26,000  Level Memphis Center
Sat 03:51:29 AM 35.4792 -88.9600 299° West 218 251 26,000  Level Memphis Center
Sat 03:52:29 AM 35.5069 -89.0206 299° West 218 251 26,000  Level Memphis Center
Sat 03:53:29 AM 35.5369 -89.0864 299° West 218 251 26,000  Level Memphis Center
Sat 03:54:29 AM 35.5667 -89.1497 300° West 218 251 26,000  Level Memphis Center
Sat 03:55:29 AM 35.5967 -89.2158 299° West 218 251 26,000  Level Memphis Center
Sat 03:56:29 AM 35.6242 -89.2792 298° West 218 251 26,000 50 Level Memphis Center
Sat 03:57:29 AM 35.6539 -89.3428 300° West 216 249 26,100 50 Climbing Memphis Center
Sat 03:58:29 AM 35.6858 -89.4114 300° West 216 249 26,100  Level Memphis Center
Sat 03:59:29 AM 35.7069 -89.4672 295° West 216 249 26,100  Level Memphis Center
Sat 04:00:29 AM 35.7367 -89.5361 298° West 221 254 26,100  Level Memphis Center
Sat 04:01:29 AM 35.7642 -89.5997 298° West 221 254 26,100  Level Memphis Center
Sat 04:02:29 AM 35.7958 -89.6658 301° West 221 254 26,100  Level Memphis Center
Sat 04:03:29 AM 35.8233 -89.7272 299° West 221 254 26,100  Level Memphis Center
Sat 04:04:29 AM 35.8528 -89.7936 299° West 221 254 26,100  Level Memphis Center
Sat 04:05:29 AM 35.8906 -89.8547 307° West 221 254 26,100  Level Memphis Center
Sat 04:06:29 AM 35.9367 -89.9083 317° Northwest 221 254 26,100  Level Memphis Center
Sat 04:07:29 AM 35.9767 -89.9644 311° West 221 254 26,100  Level Memphis Center
Sat 04:08:29 AM 36.0206 -90.0233 313° West 221 254 26,100  Level Memphis Center
Sat 04:09:29 AM 36.0625 -90.0772 314° West 226 260 26,100  Level Memphis Center
Sat 04:10:29 AM 36.1042 -90.1386 310° West 226 260 26,100  Level Memphis Center
Sat 04:11:29 AM 36.1481 -90.1975 313° West 226 260 26,100  Level Memphis Center
Sat 04:12:29 AM 36.1919 -90.2542 314° West 231 266 26,100  Level Memphis Center
Sat 04:13:29 AM 36.2358 -90.3106 314° West 231 266 26,100  Level Memphis Center
Sat 04:14:29 AM 36.2794 -90.3697 312° West 231 266 26,100  Level Memphis Center
Sat 04:15:29 AM 36.3211 -90.4292 311° West 236 272 26,100  Level Memphis Center
Sat 04:16:29 AM 36.3650 -90.4883 313° West 236 272 26,100  Level Memphis Center
Sat 04:17:29 AM 36.4108 -90.5478 314° West 236 272 26,100  Level Memphis Center
Sat 04:18:29 AM 36.4522 -90.6072 311° West 236 272 26,100  Level Memphis Center
Sat 04:19:29 AM 36.5000 -90.6642 316° Northwest 236 272 26,100  Level Memphis Center
Sat 04:20:29 AM 36.5436 -90.7289 310° West 236 272 26,100  Level Memphis Center
Sat 04:21:29 AM 36.5872 -90.7886 312° West 236 272 26,100  Level Memphis Center
Sat 04:23:06 AM 36.6600 -90.8814 314° West 235 270 26,100  Level Kansas City Center
Sat 04:24:08 AM 36.7042 -90.9428 312° West 236 272 26,100  Level Kansas City Center
Sat 04:25:07 AM 36.7506 -91.0025 314° West 238 274 26,100  Level Kansas City Center
Sat 04:26:07 AM 36.7939 -91.0653 311° West 239 275 26,100  Level Kansas City Center
Sat 04:27:10 AM 36.8372 -91.1244 312° West 241 277 26,100  Level Kansas City Center
Sat 04:28:07 AM 36.8828 -91.1864 313° West 241 277 26,100  Level Kansas City Center
Sat 04:29:08 AM 36.9286 -91.2472 313° West 239 275 26,100  Level Kansas City Center
Sat 04:30:08 AM 36.9711 -91.3097 310° West 237 273 26,100  Level Kansas City Center
Sat 04:31:09 AM 37.0153 -91.3697 313° West 235 270 26,100  Level Kansas City Center
Sat 04:32:09 AM 37.0586 -91.4333 310° West 238 274 26,100  Level Kansas City Center
Sat 04:33:09 AM 37.1019 -91.4931 312° West 234 269 26,100  Level Kansas City Center
Sat 04:34:11 AM 37.1450 -91.5581 310° West 237 273 26,100  Level Kansas City Center
Sat 04:35:12 AM 37.1886 -91.6217 311° West 239 275 26,100  Level Kansas City Center
Sat 04:36:10 AM 37.2336 -91.6817 313° West 238 274 26,100  Level Kansas City Center
Sat 04:37:13 AM 37.2769 -91.7422 312° West 235 270 26,100  Level Kansas City Center
Sat 04:38:11 AM 37.3222 -91.8025 313° West 236 272 26,100  Level Kansas City Center
Sat 04:39:12 AM 37.3664 -91.8636 312° West 235 270 26,100  Level Kansas City Center
Sat 04:40:12 AM 37.4100 -91.9272 311° West 238 274 26,100  Level Kansas City Center
Sat 04:41:14 AM 37.4542 -91.9881 312° West 236 272 26,100  Level Kansas City Center
Sat 04:42:14 AM 37.4969 -92.0492 311° West 233 268 26,100  Level Kansas City Center
Sat 04:43:15 AM 37.5411 -92.1097 313° West 233 268 26,100  Level Kansas City Center
Sat 04:44:15 AM 37.5831 -92.1717 311° West 232 267 26,100  Level Kansas City Center
Sat 04:45:15 AM 37.6272 -92.2322 313° West 233 268 26,100  Level Kansas City Center
Sat 04:46:15 AM 37.6669 -92.2917 310° West 234 269 26,100  Level Kansas City Center
Sat 04:47:16 AM 37.7106 -92.3531 312° West 234 269 26,100  Level Kansas City Center
Sat 04:48:13 AM 37.7531 -92.4164 310° West 236 272 26,100  Level Kansas City Center
Sat 04:49:16 AM 37.7983 -92.4789 313° West 239 275 26,100  Level Kansas City Center
Sat 04:50:17 AM 37.8422 -92.5431 311° West 241 277 26,100  Level Kansas City Center
Sat 04:51:14 AM 37.8972 -92.6208 312° West 245 282 26,100  Level Kansas City Center
Sat 04:52:17 AM 37.9411 -92.6861 310° West 245 282 26,100  Level Kansas City Center
Sat 04:53:16 AM 37.9864 -92.7500 312° West 244 281 26,100  Level Kansas City Center
Sat 04:54:15 AM 38.0294 -92.8108 312° West 244 281 26,100  Level Kansas City Center
Sat 04:55:17 AM 38.0733 -92.8739 311° West 240 276 26,100  Level Kansas City Center
Sat 04:56:17 AM 38.1158 -92.9389 310° West 237 273 26,100  Level Kansas City Center
Sat 04:57:17 AM 38.1606 -93.0036 311° West 241 277 26,100  Level Kansas City Center
Sat 04:58:20 AM 38.2031 -93.0689 310° West 240 276 26,100  Level Kansas City Center
Sat 04:59:19 AM 38.2494 -93.1356 312° West 246 283 26,100  Level Kansas City Center
Sat 05:00:20 AM 38.2950 -93.2008 312° West 246 283 26,100  Level Kansas City Center
Sat 05:01:17 AM 38.3400 -93.2667 311° West 246 283 26,100  Level Kansas City Center
Sat 05:02:20 AM 38.3831 -93.3331 310° West 244 281 26,100 -99 Level Kansas City Center
Sat 05:03:18 AM 38.4272 -93.3989 311° West 243 280 25,900 -545 Descending Kansas City Center
Sat 05:04:21 AM 38.4750 -93.4661 312° West 252 290 25,000 -1,131 Descending Kansas City Center
Sat 05:05:20 AM 38.5200 -93.5414 307° West 263 303 23,600 -1,350 Descending Kansas City Center
Sat 05:06:21 AM 38.5714 -93.6133 312° West 269 310 22,300 -1,377 Descending Kansas City Center
Sat 05:07:22 AM 38.6183 -93.6872 309° West 269 310 20,800 -1,388 Descending Kansas City Center
Sat 05:08:22 AM 38.6706 -93.7614 312° West 269 310 19,500 -1,373 Descending Kansas City Center
Sat 05:09:20 AM 38.7175 -93.8308 311° West 270 311 18,100 -1,289 Descending Kansas City Center
Sat 05:10:23 AM 38.7636 -93.9003 310° West 267 307 16,900 -1,073 Descending Kansas City Center
Sat 05:11:23 AM 38.8189 -93.9692 316° Northwest 245 282 15,900 -661 Descending Kansas City Center
Sat 05:12:21 AM 38.8497 -94.0144 311° West 176 203 15,600 -900 Descending Kansas City Center
Sat 05:13:23 AM 38.8761 -94.0719 301° West 193 222 14,100 -1,623 Descending Kansas City Center
Sat 05:14:23 AM 38.9006 -94.1517 292° West 215 247 12,300 -1,672 Descending Kansas City Center
Sat 05:15:25 AM 38.9294 -94.2136 301° West 212 244 10,700 -1,721 Descending Kansas City Center
Sat 05:16:25 AM 38.9544 -94.2772 297° West 209 241 8,800 -1,765 Descending Kansas City Center
Sat 05:17:24 AM 38.9778 -94.3381 296° West 200 230 7,200 -1,537 Descending Kansas City Center
Sat 05:18:26 AM 39.0064 -94.4103 297° West 204 235 5,700 -1,180 Descending Kansas City Center
Sat 05:19:26 AM 39.0306 -94.4739 296° West 205 236 4,800 -850 Descending Kansas City Center
Sat 05:20:26 AM 39.0528 -94.5367 295° West 202 232 4,000 -397 Descending Kansas City Center
Sat 05:21:27 AM 39.0794 -94.6003 298° West 182 209 4,000  Level Kansas City Center
Sat 05:22:24 AM 39.0994 -94.6542 296° West 176 203 4,000  Level Kansas City Center
Sat 05:23:25 AM 39.1197 -94.7078 296° West 175 201 4,000 -435 Level Kansas City Center
Sat 05:24:28 AM 39.1447 -94.7569 303° West 177 204 3,100 -393 Descending Kansas City Center
Sat 05:25:27 AM 39.1911 -94.7603 357° North 148 170 3,200 -198 Climbing Kansas City Center
Sat 05:26:29 AM 39.2228 -94.7500 14° North 125 144 2,700 -639 Descending Kansas City Center
Sat 05:27:29 AM 39.2497 -94.7428 12° North 106 122 1,900 -655 Descending Kansas City Center
Sat 05:28:28 AM 39.2781 -94.7336 14° North 98 113 1,400 -458 Descending Kansas City Center
Sat 05:29:27 AM 39.3011 -94.7269 13° North 93 107 1,000 -407 Descending Kansas City Center

Login

Don't have an account? Register now (free) for customized features, flight alerts, and more!